Aviation Digital Data Service (ADDS)

Output produced by METARs form (2336 UTC 25 June 2019)
found at http://aviationweather.gov/metar/data/
 
KCXO 252253Z 15008KT 10SM CLR 27/20 A3003 RMK AO2 SLP167 T02670200
KCXO 252320Z 2600/2624 15008KT P6SM VCSH FEW035 BKN100 
     TEMPO 2600/2602 -RA 
     FM260200 14006KT P6SM SCT030 BKN150 
     FM261000 13004KT P6SM BKN020 
     FM261500 15007KT P6SM VCSH SCT035 
     FM261900 15008KT P6SM VCTS SCT040CB